sensor_id;sensor_type;location;lat;lon;timestamp;P1;durP1;ratioP1;P2;durP2;ratioP2
21326;SDS011;10822;51.532;6.770;2023-02-22T00:00:07;61.08;;;25.90;;
21326;SDS011;10822;51.532;6.770;2023-02-22T00:02:54;67.97;;;28.33;;
21326;SDS011;10822;51.532;6.770;2023-02-22T00:05:23;57.58;;;24.60;;
21326;SDS011;10822;51.532;6.770;2023-02-22T00:07:50;59.50;;;26.20;;
21326;SDS011;10822;51.532;6.770;2023-02-22T00:10:16;52.58;;;24.40;;
21326;SDS011;10822;51.532;6.770;2023-02-22T00:12:46;59.75;;;25.65;;
21326;SDS011;10822;51.532;6.770;2023-02-22T00:15:13;56.40;;;24.75;;
21326;SDS011;10822;51.532;6.770;2023-02-22T00:17:39;58.28;;;25.88;;
21326;SDS011;10822;51.532;6.770;2023-02-22T00:20:06;61.42;;;25.85;;
21326;SDS011;10822;51.532;6.770;2023-02-22T00:22:32;62.88;;;26.35;;
21326;SDS011;10822;51.532;6.770;2023-02-22T00:24:58;61.30;;;26.50;;
21326;SDS011;10822;51.532;6.770;2023-02-22T00:27:24;59.38;;;25.98;;
21326;SDS011;10822;51.532;6.770;2023-02-22T00:29:50;54.22;;;23.60;;
21326;SDS011;10822;51.532;6.770;2023-02-22T00:32:17;59.80;;;26.70;;
21326;SDS011;10822;51.532;6.770;2023-02-22T00:34:42;58.05;;;24.90;;
21326;SDS011;10822;51.532;6.770;2023-02-22T00:37:09;57.72;;;25.70;;
21326;SDS011;10822;51.532;6.770;2023-02-22T00:39:35;53.35;;;25.38;;
21326;SDS011;10822;51.532;6.770;2023-02-22T00:42:01;55.38;;;23.83;;
21326;SDS011;10822;51.532;6.770;2023-02-22T00:44:28;53.38;;;24.13;;
21326;SDS011;10822;51.532;6.770;2023-02-22T00:46:53;59.38;;;25.00;;
21326;SDS011;10822;51.532;6.770;2023-02-22T00:49:19;52.13;;;23.85;;
21326;SDS011;10822;51.532;6.770;2023-02-22T00:51:45;54.60;;;24.20;;
21326;SDS011;10822;51.532;6.770;2023-02-22T00:54:11;56.08;;;24.83;;
21326;SDS011;10822;51.532;6.770;2023-02-22T00:56:38;51.15;;;23.48;;
21326;SDS011;10822;51.532;6.770;2023-02-22T00:59:04;49.90;;;22.98;;
21326;SDS011;10822;51.532;6.770;2023-02-22T01:01:30;50.13;;;22.67;;
21326;SDS011;10822;51.532;6.770;2023-02-22T01:03:56;55.33;;;23.25;;
21326;SDS011;10822;51.532;6.770;2023-02-22T01:06:23;49.53;;;21.42;;
21326;SDS011;10822;51.532;6.770;2023-02-22T01:08:48;56.60;;;24.42;;
21326;SDS011;10822;51.532;6.770;2023-02-22T01:11:15;50.03;;;22.63;;
21326;SDS011;10822;51.532;6.770;2023-02-22T01:13:41;46.05;;;22.08;;
21326;SDS011;10822;51.532;6.770;2023-02-22T01:16:09;52.20;;;20.98;;
21326;SDS011;10822;51.532;6.770;2023-02-22T01:18:35;47.75;;;22.08;;
21326;SDS011;10822;51.532;6.770;2023-02-22T01:21:02;47.97;;;21.23;;
21326;SDS011;10822;51.532;6.770;2023-02-22T01:23:29;49.85;;;20.83;;
21326;SDS011;10822;51.532;6.770;2023-02-22T01:25:55;48.97;;;21.65;;
21326;SDS011;10822;51.532;6.770;2023-02-22T01:28:21;46.90;;;20.58;;
21326;SDS011;10822;51.532;6.770;2023-02-22T01:30:47;56.05;;;22.15;;
21326;SDS011;10822;51.532;6.770;2023-02-22T01:33:13;52.00;;;22.63;;
21326;SDS011;10822;51.532;6.770;2023-02-22T01:35:40;62.28;;;27.40;;
21326;SDS011;10822;51.532;6.770;2023-02-22T01:38:06;55.22;;;25.45;;
21326;SDS011;10822;51.532;6.770;2023-02-22T01:40:34;53.60;;;22.77;;
21326;SDS011;10822;51.532;6.770;2023-02-22T01:43:15;54.00;;;23.00;;
21326;SDS011;10822;51.532;6.770;2023-02-22T01:45:43;47.92;;;21.20;;
21326;SDS011;10822;51.532;6.770;2023-02-22T01:48:12;49.47;;;22.58;;
21326;SDS011;10822;51.532;6.770;2023-02-22T01:50:44;48.40;;;20.77;;
21326;SDS011;10822;51.532;6.770;2023-02-22T01:53:12;51.53;;;20.80;;
21326;SDS011;10822;51.532;6.770;2023-02-22T01:55:39;48.67;;;21.58;;
21326;SDS011;10822;51.532;6.770;2023-02-22T01:58:05;45.72;;;21.33;;
21326;SDS011;10822;51.532;6.770;2023-02-22T02:00:32;46.92;;;20.67;;
21326;SDS011;10822;51.532;6.770;2023-02-22T02:03:00;45.55;;;20.17;;
21326;SDS011;10822;51.532;6.770;2023-02-22T02:05:27;52.17;;;22.77;;
21326;SDS011;10822;51.532;6.770;2023-02-22T02:07:57;46.88;;;20.13;;
21326;SDS011;10822;51.532;6.770;2023-02-22T02:10:27;49.38;;;21.15;;
21326;SDS011;10822;51.532;6.770;2023-02-22T02:12:53;46.53;;;21.38;;
21326;SDS011;10822;51.532;6.770;2023-02-22T02:17:49;48.17;;;21.10;;
21326;SDS011;10822;51.532;6.770;2023-02-22T02:20:37;45.58;;;20.05;;
21326;SDS011;10822;51.532;6.770;2023-02-22T02:38:56;41.35;;;18.83;;
21326;SDS011;10822;51.532;6.770;2023-02-22T02:41:29;44.22;;;20.92;;
21326;SDS011;10822;51.532;6.770;2023-02-22T02:46:54;51.90;;;21.27;;
21326;SDS011;10822;51.532;6.770;2023-02-22T02:49:23;48.60;;;19.83;;
21326;SDS011;10822;51.532;6.770;2023-02-22T02:51:51;47.47;;;20.65;;
21326;SDS011;10822;51.532;6.770;2023-02-22T02:54:18;50.75;;;20.85;;
21326;SDS011;10822;51.532;6.770;2023-02-22T02:56:45;51.25;;;20.75;;
21326;SDS011;10822;51.532;6.770;2023-02-22T03:04:36;52.58;;;21.50;;
21326;SDS011;10822;51.532;6.770;2023-02-22T03:10:15;53.75;;;22.33;;
21326;SDS011;10822;51.532;6.770;2023-02-22T03:15:32;70.07;;;23.02;;
21326;SDS011;10822;51.532;6.770;2023-02-22T03:25:38;62.28;;;21.23;;
21326;SDS011;10822;51.532;6.770;2023-02-22T03:28:06;55.92;;;20.17;;
21326;SDS011;10822;51.532;6.770;2023-02-22T03:30:47;63.38;;;22.45;;
21326;SDS011;10822;51.532;6.770;2023-02-22T03:33:14;48.47;;;17.95;;
21326;SDS011;10822;51.532;6.770;2023-02-22T03:35:46;57.60;;;19.95;;
21326;SDS011;10822;51.532;6.770;2023-02-22T03:38:14;51.60;;;19.17;;
21326;SDS011;10822;51.532;6.770;2023-02-22T03:40:42;66.95;;;21.40;;
21326;SDS011;10822;51.532;6.770;2023-02-22T03:43:11;66.75;;;20.77;;
21326;SDS011;10822;51.532;6.770;2023-02-22T03:45:39;57.92;;;19.50;;
21326;SDS011;10822;51.532;6.770;2023-02-22T03:48:16;71.00;;;19.55;;
21326;SDS011;10822;51.532;6.770;2023-02-22T03:50:44;77.03;;;20.08;;
21326;SDS011;10822;51.532;6.770;2023-02-22T03:53:10;66.78;;;21.42;;
21326;SDS011;10822;51.532;6.770;2023-02-22T03:55:36;74.40;;;22.15;;
21326;SDS011;10822;51.532;6.770;2023-02-22T03:58:05;63.17;;;21.70;;
21326;SDS011;10822;51.532;6.770;2023-02-22T04:00:32;65.78;;;22.75;;
21326;SDS011;10822;51.532;6.770;2023-02-22T04:02:58;70.57;;;22.58;;
21326;SDS011;10822;51.532;6.770;2023-02-22T04:05:24;92.32;;;24.42;;
21326;SDS011;10822;51.532;6.770;2023-02-22T04:07:51;73.60;;;22.70;;
21326;SDS011;10822;51.532;6.770;2023-02-22T04:10:17;89.88;;;23.30;;
21326;SDS011;10822;51.532;6.770;2023-02-22T04:12:43;71.63;;;25.23;;
21326;SDS011;10822;51.532;6.770;2023-02-22T04:15:15;76.55;;;23.35;;
21326;SDS011;10822;51.532;6.770;2023-02-22T04:17:41;72.23;;;22.90;;
21326;SDS011;10822;51.532;6.770;2023-02-22T04:20:07;73.82;;;22.77;;
21326;SDS011;10822;51.532;6.770;2023-02-22T04:25:03;70.75;;;21.23;;
21326;SDS011;10822;51.532;6.770;2023-02-22T04:27:29;66.45;;;21.45;;
21326;SDS011;10822;51.532;6.770;2023-02-22T04:29:55;72.38;;;22.85;;
21326;SDS011;10822;51.532;6.770;2023-02-22T04:32:21;63.53;;;21.98;;
21326;SDS011;10822;51.532;6.770;2023-02-22T04:34:47;68.90;;;21.88;;
21326;SDS011;10822;51.532;6.770;2023-02-22T04:37:13;60.60;;;20.05;;
21326;SDS011;10822;51.532;6.770;2023-02-22T04:39:39;67.78;;;20.55;;
21326;SDS011;10822;51.532;6.770;2023-02-22T04:42:05;68.28;;;21.30;;
21326;SDS011;10822;51.532;6.770;2023-02-22T04:44:31;58.78;;;19.50;;
21326;SDS011;10822;51.532;6.770;2023-02-22T04:46:57;56.22;;;19.73;;
21326;SDS011;10822;51.532;6.770;2023-02-22T04:49:23;63.80;;;19.85;;
21326;SDS011;10822;51.532;6.770;2023-02-22T04:51:49;62.88;;;19.73;;
21326;SDS011;10822;51.532;6.770;2023-02-22T04:54:15;56.75;;;19.10;;
21326;SDS011;10822;51.532;6.770;2023-02-22T04:56:42;60.53;;;18.45;;
21326;SDS011;10822;51.532;6.770;2023-02-22T04:59:08;58.83;;;18.92;;
21326;SDS011;10822;51.532;6.770;2023-02-22T05:01:34;52.75;;;18.80;;
21326;SDS011;10822;51.532;6.770;2023-02-22T05:04:01;61.60;;;18.20;;
21326;SDS011;10822;51.532;6.770;2023-02-22T05:06:27;52.78;;;17.05;;
21326;SDS011;10822;51.532;6.770;2023-02-22T05:08:53;45.45;;;16.88;;
21326;SDS011;10822;51.532;6.770;2023-02-22T05:11:19;62.42;;;17.75;;
21326;SDS011;10822;51.532;6.770;2023-02-22T05:13:45;57.47;;;17.58;;
21326;SDS011;10822;51.532;6.770;2023-02-22T05:16:11;48.95;;;16.35;;
21326;SDS011;10822;51.532;6.770;2023-02-22T05:18:37;49.47;;;16.75;;
21326;SDS011;10822;51.532;6.770;2023-02-22T05:21:03;35.15;;;15.05;;
21326;SDS011;10822;51.532;6.770;2023-02-22T05:23:30;44.40;;;17.35;;
21326;SDS011;10822;51.532;6.770;2023-02-22T05:25:56;47.78;;;17.05;;
21326;SDS011;10822;51.532;6.770;2023-02-22T05:28:22;58.90;;;16.58;;
21326;SDS011;10822;51.532;6.770;2023-02-22T05:30:48;42.63;;;16.27;;
21326;SDS011;10822;51.532;6.770;2023-02-22T05:33:14;47.83;;;17.33;;
21326;SDS011;10822;51.532;6.770;2023-02-22T05:35:41;51.00;;;16.58;;
21326;SDS011;10822;51.532;6.770;2023-02-22T05:38:08;51.05;;;17.50;;
21326;SDS011;10822;51.532;6.770;2023-02-22T05:40:35;48.53;;;16.48;;
21326;SDS011;10822;51.532;6.770;2023-02-22T05:43:01;47.15;;;18.00;;
21326;SDS011;10822;51.532;6.770;2023-02-22T05:45:27;46.67;;;16.42;;
21326;SDS011;10822;51.532;6.770;2023-02-22T05:47:53;48.53;;;17.05;;
21326;SDS011;10822;51.532;6.770;2023-02-22T05:50:19;61.95;;;16.98;;
21326;SDS011;10822;51.532;6.770;2023-02-22T05:52:46;58.97;;;18.08;;
21326;SDS011;10822;51.532;6.770;2023-02-22T05:55:16;47.35;;;18.33;;
21326;SDS011;10822;51.532;6.770;2023-02-22T05:57:42;46.70;;;17.65;;
21326;SDS011;10822;51.532;6.770;2023-02-22T06:00:08;62.15;;;17.42;;
21326;SDS011;10822;51.532;6.770;2023-02-22T06:02:35;47.95;;;17.20;;
21326;SDS011;10822;51.532;6.770;2023-02-22T06:05:01;49.20;;;17.20;;
21326;SDS011;10822;51.532;6.770;2023-02-22T06:07:27;43.38;;;16.20;;
21326;SDS011;10822;51.532;6.770;2023-02-22T06:09:53;46.22;;;17.75;;
21326;SDS011;10822;51.532;6.770;2023-02-22T06:12:19;58.53;;;20.25;;
21326;SDS011;10822;51.532;6.770;2023-02-22T06:14:45;46.90;;;18.65;;
21326;SDS011;10822;51.532;6.770;2023-02-22T06:17:11;53.60;;;20.10;;
21326;SDS011;10822;51.532;6.770;2023-02-22T06:19:38;53.97;;;20.73;;
21326;SDS011;10822;51.532;6.770;2023-02-22T06:22:04;47.85;;;20.10;;
21326;SDS011;10822;51.532;6.770;2023-02-22T06:24:30;53.38;;;19.23;;
21326;SDS011;10822;51.532;6.770;2023-02-22T06:26:57;55.20;;;21.45;;
21326;SDS011;10822;51.532;6.770;2023-02-22T06:29:24;61.50;;;22.25;;
21326;SDS011;10822;51.532;6.770;2023-02-22T06:31:50;57.38;;;22.25;;
21326;SDS011;10822;51.532;6.770;2023-02-22T06:34:16;63.88;;;22.48;;
21326;SDS011;10822;51.532;6.770;2023-02-22T06:36:42;58.75;;;22.55;;
21326;SDS011;10822;51.532;6.770;2023-02-22T06:39:08;50.40;;;19.65;;
21326;SDS011;10822;51.532;6.770;2023-02-22T06:41:38;50.35;;;20.02;;
21326;SDS011;10822;51.532;6.770;2023-02-22T06:44:04;53.17;;;21.00;;
21326;SDS011;10822;51.532;6.770;2023-02-22T06:46:31;50.17;;;21.13;;
21326;SDS011;10822;51.532;6.770;2023-02-22T06:48:57;53.17;;;20.80;;
21326;SDS011;10822;51.532;6.770;2023-02-22T06:51:25;51.45;;;20.73;;
21326;SDS011;10822;51.532;6.770;2023-02-22T06:53:52;53.40;;;20.70;;
21326;SDS011;10822;51.532;6.770;2023-02-22T06:56:18;48.85;;;20.38;;
21326;SDS011;10822;51.532;6.770;2023-02-22T06:58:44;52.75;;;21.02;;
21326;SDS011;10822;51.532;6.770;2023-02-22T07:01:10;54.10;;;21.83;;
21326;SDS011;10822;51.532;6.770;2023-02-22T07:03:36;48.00;;;20.23;;
21326;SDS011;10822;51.532;6.770;2023-02-22T07:06:03;43.47;;;19.33;;
21326;SDS011;10822;51.532;6.770;2023-02-22T07:08:29;45.58;;;19.38;;
21326;SDS011;10822;51.532;6.770;2023-02-22T07:10:55;49.65;;;21.23;;
21326;SDS011;10822;51.532;6.770;2023-02-22T07:13:21;49.58;;;20.73;;
21326;SDS011;10822;51.532;6.770;2023-02-22T07:15:47;49.83;;;19.95;;
21326;SDS011;10822;51.532;6.770;2023-02-22T07:18:13;50.00;;;20.55;;
21326;SDS011;10822;51.532;6.770;2023-02-22T07:20:40;43.35;;;19.15;;
21326;SDS011;10822;51.532;6.770;2023-02-22T07:23:06;42.40;;;18.25;;
21326;SDS011;10822;51.532;6.770;2023-02-22T07:25:32;42.05;;;18.70;;
21326;SDS011;10822;51.532;6.770;2023-02-22T07:27:58;39.10;;;17.83;;
21326;SDS011;10822;51.532;6.770;2023-02-22T07:30:28;42.28;;;19.33;;
21326;SDS011;10822;51.532;6.770;2023-02-22T07:32:55;40.60;;;19.05;;
21326;SDS011;10822;51.532;6.770;2023-02-22T07:35:28;42.58;;;19.63;;
21326;SDS011;10822;51.532;6.770;2023-02-22T07:37:55;47.60;;;19.90;;
21326;SDS011;10822;51.532;6.770;2023-02-22T07:40:21;46.92;;;20.80;;
21326;SDS011;10822;51.532;6.770;2023-02-22T07:45:16;47.45;;;20.88;;
21326;SDS011;10822;51.532;6.770;2023-02-22T07:47:42;49.03;;;19.92;;
21326;SDS011;10822;51.532;6.770;2023-02-22T07:50:11;43.42;;;19.77;;
21326;SDS011;10822;51.532;6.770;2023-02-22T07:52:38;44.30;;;19.75;;
21326;SDS011;10822;51.532;6.770;2023-02-22T07:55:04;38.85;;;18.55;;
21326;SDS011;10822;51.532;6.770;2023-02-22T07:57:31;42.08;;;19.52;;
21326;SDS011;10822;51.532;6.770;2023-02-22T07:59:57;41.20;;;18.92;;
21326;SDS011;10822;51.532;6.770;2023-02-22T08:02:24;35.88;;;17.77;;
21326;SDS011;10822;51.532;6.770;2023-02-22T08:04:50;34.58;;;16.95;;
21326;SDS011;10822;51.532;6.770;2023-02-22T08:07:16;31.88;;;16.15;;
21326;SDS011;10822;51.532;6.770;2023-02-22T08:09:42;33.10;;;16.60;;
21326;SDS011;10822;51.532;6.770;2023-02-22T08:12:08;32.42;;;17.15;;
21326;SDS011;10822;51.532;6.770;2023-02-22T08:14:34;29.73;;;15.88;;
21326;SDS011;10822;51.532;6.770;2023-02-22T08:17:00;28.23;;;15.63;;
21326;SDS011;10822;51.532;6.770;2023-02-22T08:19:26;27.83;;;15.60;;
21326;SDS011;10822;51.532;6.770;2023-02-22T08:21:52;30.13;;;15.07;;
21326;SDS011;10822;51.532;6.770;2023-02-22T08:24:18;24.65;;;13.75;;
21326;SDS011;10822;51.532;6.770;2023-02-22T08:26:44;24.65;;;13.48;;
21326;SDS011;10822;51.532;6.770;2023-02-22T08:29:10;22.95;;;13.43;;
21326;SDS011;10822;51.532;6.770;2023-02-22T08:31:38;23.40;;;13.40;;
21326;SDS011;10822;51.532;6.770;2023-02-22T08:34:04;21.30;;;13.10;;
21326;SDS011;10822;51.532;6.770;2023-02-22T08:36:30;24.27;;;12.75;;
21326;SDS011;10822;51.532;6.770;2023-02-22T08:38:57;19.92;;;11.88;;
21326;SDS011;10822;51.532;6.770;2023-02-22T08:41:23;22.52;;;13.70;;
21326;SDS011;10822;51.532;6.770;2023-02-22T08:43:49;20.17;;;12.88;;
21326;SDS011;10822;51.532;6.770;2023-02-22T08:46:15;22.25;;;12.20;;
21326;SDS011;10822;51.532;6.770;2023-02-22T08:48:51;18.63;;;11.68;;
21326;SDS011;10822;51.532;6.770;2023-02-22T08:51:17;21.85;;;12.73;;
21326;SDS011;10822;51.532;6.770;2023-02-22T08:53:43;20.35;;;12.32;;
21326;SDS011;10822;51.532;6.770;2023-02-22T08:56:09;25.20;;;12.68;;
21326;SDS011;10822;51.532;6.770;2023-02-22T08:58:35;22.10;;;12.77;;
21326;SDS011;10822;51.532;6.770;2023-02-22T09:01:02;21.88;;;13.15;;
21326;SDS011;10822;51.532;6.770;2023-02-22T09:03:28;24.50;;;13.52;;
21326;SDS011;10822;51.532;6.770;2023-02-22T09:05:54;22.52;;;12.88;;
21326;SDS011;10822;51.532;6.770;2023-02-22T09:08:20;24.90;;;13.50;;
21326;SDS011;10822;51.532;6.770;2023-02-22T09:10:48;20.58;;;12.43;;
21326;SDS011;10822;51.532;6.770;2023-02-22T09:13:14;23.38;;;13.32;;
21326;SDS011;10822;51.532;6.770;2023-02-22T09:15:40;24.35;;;13.63;;
21326;SDS011;10822;51.532;6.770;2023-02-22T09:18:07;23.42;;;13.13;;
21326;SDS011;10822;51.532;6.770;2023-02-22T09:20:33;22.77;;;13.40;;
21326;SDS011;10822;51.532;6.770;2023-02-22T09:23:03;20.50;;;12.88;;
21326;SDS011;10822;51.532;6.770;2023-02-22T09:25:30;21.30;;;13.30;;
21326;SDS011;10822;51.532;6.770;2023-02-22T09:27:58;21.02;;;12.60;;
21326;SDS011;10822;51.532;6.770;2023-02-22T09:32:54;20.60;;;12.85;;
21326;SDS011;10822;51.532;6.770;2023-02-22T09:35:21;19.35;;;12.20;;
21326;SDS011;10822;51.532;6.770;2023-02-22T09:37:56;17.65;;;12.32;;
21326;SDS011;10822;51.532;6.770;2023-02-22T09:40:23;22.27;;;12.32;;
21326;SDS011;10822;51.532;6.770;2023-02-22T09:48:09;20.70;;;11.75;;
21326;SDS011;10822;51.532;6.770;2023-02-22T09:50:39;18.50;;;12.80;;
21326;SDS011;10822;51.532;6.770;2023-02-22T09:53:13;19.15;;;11.75;;
21326;SDS011;10822;51.532;6.770;2023-02-22T09:55:49;18.77;;;11.75;;
21326;SDS011;10822;51.532;6.770;2023-02-22T09:58:32;20.63;;;12.27;;
21326;SDS011;10822;51.532;6.770;2023-02-22T10:03:48;21.13;;;12.80;;
21326;SDS011;10822;51.532;6.770;2023-02-22T10:06:16;21.40;;;12.73;;
21326;SDS011;10822;51.532;6.770;2023-02-22T10:08:45;19.08;;;11.23;;
21326;SDS011;10822;51.532;6.770;2023-02-22T10:11:18;23.40;;;12.07;;
21326;SDS011;10822;51.532;6.770;2023-02-22T10:16:42;19.73;;;12.77;;
21326;SDS011;10822;51.532;6.770;2023-02-22T10:24:15;20.95;;;13.20;;
21326;SDS011;10822;51.532;6.770;2023-02-22T10:26:44;21.08;;;12.48;;
21326;SDS011;10822;51.532;6.770;2023-02-22T10:31:38;21.23;;;13.25;;
21326;SDS011;10822;51.532;6.770;2023-02-22T10:34:09;23.80;;;13.10;;
21326;SDS011;10822;51.532;6.770;2023-02-22T10:36:36;21.70;;;13.35;;
21326;SDS011;10822;51.532;6.770;2023-02-22T10:39:15;19.40;;;12.50;;
21326;SDS011;10822;51.532;6.770;2023-02-22T10:41:48;21.43;;;13.77;;
21326;SDS011;10822;51.532;6.770;2023-02-22T10:44:15;22.33;;;13.30;;
21326;SDS011;10822;51.532;6.770;2023-02-22T10:46:41;21.50;;;13.93;;
21326;SDS011;10822;51.532;6.770;2023-02-22T10:49:09;21.90;;;13.35;;
21326;SDS011;10822;51.532;6.770;2023-02-22T10:51:35;22.13;;;13.25;;
21326;SDS011;10822;51.532;6.770;2023-02-22T10:56:48;20.30;;;13.35;;
21326;SDS011;10822;51.532;6.770;2023-02-22T10:59:31;20.10;;;12.70;;
21326;SDS011;10822;51.532;6.770;2023-02-22T11:01:58;23.35;;;14.38;;
21326;SDS011;10822;51.532;6.770;2023-02-22T11:04:24;19.85;;;12.07;;
21326;SDS011;10822;51.532;6.770;2023-02-22T11:09:24;22.88;;;12.75;;
21326;SDS011;10822;51.532;6.770;2023-02-22T11:12:14;20.20;;;11.43;;
21326;SDS011;10822;51.532;6.770;2023-02-22T11:14:41;19.15;;;11.70;;
21326;SDS011;10822;51.532;6.770;2023-02-22T11:17:07;19.65;;;11.63;;
21326;SDS011;10822;51.532;6.770;2023-02-22T11:19:34;16.77;;;11.70;;
21326;SDS011;10822;51.532;6.770;2023-02-22T11:24:28;15.95;;;10.50;;
21326;SDS011;10822;51.532;6.770;2023-02-22T11:26:57;16.35;;;10.27;;
21326;SDS011;10822;51.532;6.770;2023-02-22T11:29:34;15.75;;;9.50;;
21326;SDS011;10822;51.532;6.770;2023-02-22T11:32:01;16.98;;;10.50;;
21326;SDS011;10822;51.532;6.770;2023-02-22T11:34:32;18.20;;;9.43;;
21326;SDS011;10822;51.532;6.770;2023-02-22T11:37:14;16.05;;;9.80;;
21326;SDS011;10822;51.532;6.770;2023-02-22T11:39:40;14.10;;;9.65;;
21326;SDS011;10822;51.532;6.770;2023-02-22T11:42:28;18.20;;;10.43;;
21326;SDS011;10822;51.532;6.770;2023-02-22T11:45:07;15.23;;;9.57;;
21326;SDS011;10822;51.532;6.770;2023-02-22T11:47:34;16.90;;;9.15;;
21326;SDS011;10822;51.532;6.770;2023-02-22T11:50:00;14.65;;;8.50;;
21326;SDS011;10822;51.532;6.770;2023-02-22T11:52:29;13.50;;;8.52;;
21326;SDS011;10822;51.532;6.770;2023-02-22T12:03:14;12.35;;;8.10;;
21326;SDS011;10822;51.532;6.770;2023-02-22T12:08:39;12.55;;;6.53;;
21326;SDS011;10822;51.532;6.770;2023-02-22T12:11:12;10.40;;;5.82;;
21326;SDS011;10822;51.532;6.770;2023-02-22T12:14:04;9.38;;;5.72;;
21326;SDS011;10822;51.532;6.770;2023-02-22T12:21:32;10.07;;;5.35;;
21326;SDS011;10822;51.532;6.770;2023-02-22T12:26:29;9.52;;;5.40;;
21326;SDS011;10822;51.532;6.770;2023-02-22T12:28:58;11.43;;;6.60;;
21326;SDS011;10822;51.532;6.770;2023-02-22T12:31:35;8.75;;;5.60;;
21326;SDS011;10822;51.532;6.770;2023-02-22T12:34:07;11.77;;;5.38;;
21326;SDS011;10822;51.532;6.770;2023-02-22T12:36:49;14.55;;;5.93;;
21326;SDS011;10822;51.532;6.770;2023-02-22T12:42:02;11.38;;;6.63;;
21326;SDS011;10822;51.532;6.770;2023-02-22T12:44:31;12.85;;;6.40;;
21326;SDS011;10822;51.532;6.770;2023-02-22T12:46:59;13.52;;;7.70;;
21326;SDS011;10822;51.532;6.770;2023-02-22T12:49:37;16.13;;;8.07;;
21326;SDS011;10822;51.532;6.770;2023-02-22T12:52:12;17.60;;;8.90;;
21326;SDS011;10822;51.532;6.770;2023-02-22T12:54:51;16.35;;;7.40;;
21326;SDS011;10822;51.532;6.770;2023-02-22T12:59:47;10.32;;;6.28;;
21326;SDS011;10822;51.532;6.770;2023-02-22T13:02:17;14.60;;;6.90;;
21326;SDS011;10822;51.532;6.770;2023-02-22T13:04:45;12.00;;;6.25;;
21326;SDS011;10822;51.532;6.770;2023-02-22T13:12:23;14.93;;;6.68;;
21326;SDS011;10822;51.532;6.770;2023-02-22T13:17:29;12.70;;;5.97;;
21326;SDS011;10822;51.532;6.770;2023-02-22T13:27:25;13.88;;;7.03;;
21326;SDS011;10822;51.532;6.770;2023-02-22T13:29:54;12.13;;;6.55;;
21326;SDS011;10822;51.532;6.770;2023-02-22T13:32:29;12.50;;;6.78;;
21326;SDS011;10822;51.532;6.770;2023-02-22T13:50:24;11.90;;;6.65;;
21326;SDS011;10822;51.532;6.770;2023-02-22T13:52:54;13.55;;;7.47;;
21326;SDS011;10822;51.532;6.770;2023-02-22T13:55:22;10.73;;;6.18;;
21326;SDS011;10822;51.532;6.770;2023-02-22T13:57:55;14.77;;;7.88;;
21326;SDS011;10822;51.532;6.770;2023-02-22T14:07:59;12.98;;;6.95;;
21326;SDS011;10822;51.532;6.770;2023-02-22T14:13:07;15.95;;;8.23;;
21326;SDS011;10822;51.532;6.770;2023-02-22T14:15:33;13.48;;;8.05;;
21326;SDS011;10822;51.532;6.770;2023-02-22T14:18:00;13.32;;;7.43;;
21326;SDS011;10822;51.532;6.770;2023-02-22T14:22:56;16.23;;;8.05;;
21326;SDS011;10822;51.532;6.770;2023-02-22T14:25:37;13.57;;;7.82;;
21326;SDS011;10822;51.532;6.770;2023-02-22T14:28:05;14.10;;;8.18;;
21326;SDS011;10822;51.532;6.770;2023-02-22T14:30:32;17.38;;;9.45;;
21326;SDS011;10822;51.532;6.770;2023-02-22T14:32:59;12.07;;;8.18;;
21326;SDS011;10822;51.532;6.770;2023-02-22T14:35:28;11.98;;;7.95;;
21326;SDS011;10822;51.532;6.770;2023-02-22T14:37:57;15.07;;;9.00;;
21326;SDS011;10822;51.532;6.770;2023-02-22T14:40:28;12.73;;;7.68;;
21326;SDS011;10822;51.532;6.770;2023-02-22T14:45:46;14.43;;;8.43;;
21326;SDS011;10822;51.532;6.770;2023-02-22T14:48:19;11.70;;;7.47;;
21326;SDS011;10822;51.532;6.770;2023-02-22T14:50:52;12.18;;;8.25;;
21326;SDS011;10822;51.532;6.770;2023-02-22T14:53:26;13.95;;;7.85;;
21326;SDS011;10822;51.532;6.770;2023-02-22T14:55:58;12.20;;;7.78;;
21326;SDS011;10822;51.532;6.770;2023-02-22T14:58:30;14.40;;;7.80;;
21326;SDS011;10822;51.532;6.770;2023-02-22T15:00:59;13.55;;;6.75;;
21326;SDS011;10822;51.532;6.770;2023-02-22T15:03:43;10.27;;;6.97;;
21326;SDS011;10822;51.532;6.770;2023-02-22T15:06:18;12.98;;;7.28;;
21326;SDS011;10822;51.532;6.770;2023-02-22T15:08:45;12.55;;;7.78;;
21326;SDS011;10822;51.532;6.770;2023-02-22T15:11:29;13.02;;;7.63;;
21326;SDS011;10822;51.532;6.770;2023-02-22T15:13:56;12.77;;;7.88;;
21326;SDS011;10822;51.532;6.770;2023-02-22T15:16:22;13.40;;;8.35;;
21326;SDS011;10822;51.532;6.770;2023-02-22T15:18:51;13.25;;;7.88;;
21326;SDS011;10822;51.532;6.770;2023-02-22T15:21:19;15.73;;;11.05;;
21326;SDS011;10822;51.532;6.770;2023-02-22T15:26:55;18.20;;;10.10;;
21326;SDS011;10822;51.532;6.770;2023-02-22T15:29:09;15.00;;;8.50;;
21326;SDS011;10822;51.532;6.770;2023-02-22T15:31:37;15.02;;;8.98;;
21326;SDS011;10822;51.532;6.770;2023-02-22T15:36:46;17.00;;;9.10;;
21326;SDS011;10822;51.532;6.770;2023-02-22T15:41:44;14.07;;;8.93;;
21326;SDS011;10822;51.532;6.770;2023-02-22T15:44:10;12.25;;;8.32;;
21326;SDS011;10822;51.532;6.770;2023-02-22T15:46:39;13.52;;;8.75;;
21326;SDS011;10822;51.532;6.770;2023-02-22T15:51:34;12.77;;;8.18;;
21326;SDS011;10822;51.532;6.770;2023-02-22T15:54:01;12.00;;;8.35;;
21326;SDS011;10822;51.532;6.770;2023-02-22T15:56:33;13.40;;;8.10;;
21326;SDS011;10822;51.532;6.770;2023-02-22T15:59:12;11.00;;;8.25;;
21326;SDS011;10822;51.532;6.770;2023-02-22T16:01:40;12.30;;;7.93;;
21326;SDS011;10822;51.532;6.770;2023-02-22T16:04:06;11.45;;;7.72;;
21326;SDS011;10822;51.532;6.770;2023-02-22T16:06:39;11.45;;;7.88;;
21326;SDS011;10822;51.532;6.770;2023-02-22T16:11:33;14.45;;;8.75;;
21326;SDS011;10822;51.532;6.770;2023-02-22T16:14:03;10.93;;;7.78;;
21326;SDS011;10822;51.532;6.770;2023-02-22T16:16:34;13.73;;;8.23;;
21326;SDS011;10822;51.532;6.770;2023-02-22T16:19:14;11.43;;;8.13;;
21326;SDS011;10822;51.532;6.770;2023-02-22T16:22:05;13.95;;;9.07;;
21326;SDS011;10822;51.532;6.770;2023-02-22T16:24:38;14.45;;;8.82;;
21326;SDS011;10822;51.532;6.770;2023-02-22T16:29:40;13.82;;;9.63;;
21326;SDS011;10822;51.532;6.770;2023-02-22T16:32:06;18.42;;;10.18;;
21326;SDS011;10822;51.532;6.770;2023-02-22T16:34:32;15.57;;;10.32;;
21326;SDS011;10822;51.532;6.770;2023-02-22T16:36:58;15.20;;;10.32;;
21326;SDS011;10822;51.532;6.770;2023-02-22T16:39:26;15.02;;;10.52;;
21326;SDS011;10822;51.532;6.770;2023-02-22T16:41:53;18.25;;;10.52;;
21326;SDS011;10822;51.532;6.770;2023-02-22T16:44:20;15.27;;;10.75;;
21326;SDS011;10822;51.532;6.770;2023-02-22T16:46:49;18.55;;;11.73;;
21326;SDS011;10822;51.532;6.770;2023-02-22T16:49:15;19.33;;;11.88;;
21326;SDS011;10822;51.532;6.770;2023-02-22T16:51:51;17.90;;;11.82;;
21326;SDS011;10822;51.532;6.770;2023-02-22T16:54:35;21.73;;;11.88;;
21326;SDS011;10822;51.532;6.770;2023-02-22T16:57:04;13.52;;;9.98;;
21326;SDS011;10822;51.532;6.770;2023-02-22T16:59:30;15.30;;;11.02;;
21326;SDS011;10822;51.532;6.770;2023-02-22T17:01:57;13.82;;;10.75;;
21326;SDS011;10822;51.532;6.770;2023-02-22T17:04:24;16.70;;;12.15;;
21326;SDS011;10822;51.532;6.770;2023-02-22T17:06:50;19.60;;;12.00;;
21326;SDS011;10822;51.532;6.770;2023-02-22T17:09:17;16.45;;;11.70;;